Route Details

Aircraft Information
Group: North America Light
Types: B738, B752, B762
Route Data
Distance: 248nm
Duration: 1h 00m
Origin METAR: MMGL 080046Z 310013KT 10SM SCT030 24/M02 A3006 RMK 8/500
Dest. METAR: MMMX 080044Z 14010G20KT 10SM SKC 21/04 A3019 NOSIG RMK HZY
Freight Data
(for Feb 8, 2023)
Load Factor:
75%
Manifested Cargo: 50,761lbs
Financial History
Total Freight: 858,259lbs
Average Load: 0lbs/flt
Fuel Used: 110,146lbs
Avg. Fuel Used: 0lbs/flt
Fuel Expense: $64,022
Avg. Fuel Expense: $0
Avg. Fuel Cost: $0/lbs
Total Gross Income: $1,899,966
Pilot Pay: $2,539
Total Expenses: $245,352
Total Revenue: $1,586,157
Average Revenue: $0

Capitol Logistics 767




MMGL
Don Miguel Hidalgo y Costilla International Airport
Guadalajara, MX
MMMX
Benito Juárez International Airport
Mexico City, MX

Activity Log

Date Flight Route Aircraft Duration
09/11/2022 CPX767 Not Available B738 3h 27m
07/15/2022 CPX767 EMIRI1A EMIRI UT119 ESPOS ESPOS2A B738 1h 13m
06/22/2022 CPX3123 EMIR1A EMIRI UT119 ESPOS ESPO2A B738 1h 12m
06/18/2022 CPX3123 EMIR1A EMIRI UT119 ESPOS ESPO1A B738 1h 18m
06/11/2022 CPX3123 EMIR1A EMIRI UT119 ESPOS ESPO1A B744 1h 11m
05/29/2022 CPX3123 EMIR1A EMIRI UT119 ESPOS ESPO1A B738 1h 14m
01/31/2022 CPX3123 EMIR1A EMIRI UT119 ESPOS ESPO1A B762 1h 12m
12/15/2019 CPX215 GDL4A GDL UJ14 QET UJ5 TIKEB TIKEB1A B763 1h 10m
08/14/2019 CPX215 GDL4A GDL UJ14 QET UJ5 TIKEB TIKEB1A B763 1h 04m
08/13/2019 CPX215 GDL2C GDL UJ14 QET UJ33 TIKEB TIKE1A B763 0h 59m
12/13/2018 CPX217 GDL4A GDL UJ14 QET UJ5 TIKEB TIKEB1A B763 0h 46m